createdAt,value
2022-08-24T00:00:41.328Z,16.05
2022-08-24T00:03:45.715Z,16.02
2022-08-24T00:06:49.887Z,16.08
2022-08-24T00:09:52.493Z,16.15
2022-08-24T00:12:55.003Z,16.31
2022-08-24T00:15:57.907Z,16.40
2022-08-24T00:19:02.302Z,16.52
2022-08-24T00:22:06.707Z,16.51
2022-08-24T00:25:11.333Z,16.57
2022-08-24T00:28:14.126Z,16.69
2022-08-24T00:31:17.790Z,16.60
2022-08-24T00:34:20.507Z,16.30
2022-08-24T00:37:25.417Z,16.43
2022-08-24T00:40:33.982Z,16.51
2022-08-24T00:43:36.695Z,16.40
2022-08-24T00:46:49.017Z,16.36
2022-08-24T00:49:57.655Z,16.26
2022-08-24T00:53:07.193Z,16.39
2022-08-24T00:56:15.425Z,16.50
2022-08-24T00:59:22.246Z,16.57
2022-08-24T01:02:30.229Z,16.64
2022-08-24T01:05:33.781Z,16.51
2022-08-24T01:08:37.635Z,16.27
2022-08-24T01:11:41.201Z,16.05
2022-08-24T01:14:44.466Z,15.89
2022-08-24T01:18:08.473Z,15.90
2022-08-24T01:21:16.147Z,16.04
2022-08-24T01:24:20.063Z,16.11
2022-08-24T01:27:27.862Z,16.23
2022-08-24T01:30:36.380Z,16.33
2022-08-24T01:33:39.374Z,16.55
2022-08-24T01:36:45.716Z,16.71
2022-08-24T01:39:51.173Z,16.88
2022-08-24T01:42:54.178Z,16.90
2022-08-24T01:45:56.872Z,16.79
2022-08-24T01:49:00.311Z,16.74
2022-08-24T01:52:03.542Z,16.85
2022-08-24T01:55:08.991Z,16.90
2022-08-24T01:58:11.519Z,16.86
2022-08-24T02:01:14.934Z,16.87
2022-08-24T02:04:17.615Z,16.93
2022-08-24T02:07:20.550Z,16.65
2022-08-24T02:10:24.555Z,16.45
2022-08-24T02:13:28.711Z,16.53
2022-08-24T02:16:31.283Z,16.57
2022-08-24T02:19:34.163Z,16.64
2022-08-24T02:22:36.657Z,16.69
2022-08-24T02:25:40.481Z,16.77
2022-08-24T02:28:43.314Z,16.88
2022-08-24T02:31:45.967Z,16.95
2022-08-24T02:34:48.473Z,17.07
2022-08-24T02:37:52.207Z,17.20
2022-08-24T02:40:57.866Z,17.28
2022-08-24T02:44:00.942Z,17.28
2022-08-24T02:47:03.427Z,17.04
2022-08-24T02:50:07.824Z,17.05
2022-08-24T02:53:11.165Z,17.09
2022-08-24T02:56:15.129Z,17.08
2022-08-24T02:59:18.370Z,16.97
2022-08-24T03:02:20.926Z,16.90
2022-08-24T03:05:25.009Z,16.93
2022-08-24T03:08:27.544Z,16.96
2022-08-24T03:11:33.128Z,17.08
2022-08-24T03:14:36.018Z,17.08
2022-08-24T03:17:39.950Z,17.07
2022-08-24T03:20:43.875Z,17.06
2022-08-24T03:23:46.379Z,17.03
2022-08-24T03:26:50.241Z,16.98
2022-08-24T03:29:52.978Z,16.94
2022-08-24T03:32:57.021Z,16.93
2022-08-24T03:35:59.669Z,16.85
2022-08-24T03:39:02.165Z,16.74
2022-08-24T03:42:06.843Z,16.66
2022-08-24T03:45:11.028Z,16.60
2022-08-24T03:48:15.623Z,16.57
2022-08-24T03:51:20.074Z,16.69
2022-08-24T03:54:22.603Z,16.73
2022-08-24T03:57:26.443Z,16.87
2022-08-24T04:00:28.958Z,16.97
2022-08-24T04:03:32.522Z,16.95
2022-08-24T04:06:35.960Z,16.70
2022-08-24T04:09:38.537Z,16.65
2022-08-24T04:12:42.334Z,16.71
2022-08-24T04:15:46.351Z,16.74
2022-08-24T04:18:49.301Z,16.83
2022-08-24T04:21:51.784Z,16.86
2022-08-24T04:24:54.803Z,16.89
2022-08-24T04:27:58.644Z,16.96
2022-08-24T04:31:01.201Z,17.09
2022-08-24T04:34:04.086Z,17.34
2022-08-24T04:37:11.258Z,17.64
2022-08-24T04:40:14.020Z,17.90
2022-08-24T04:43:20.092Z,18.12
2022-08-24T04:46:22.904Z,18.31
2022-08-24T04:49:25.415Z,18.49
2022-08-24T04:52:29.120Z,18.68
2022-08-24T04:55:31.717Z,18.77
2022-08-24T04:58:35.544Z,18.92
2022-08-24T05:01:38.026Z,18.94
2022-08-24T05:04:40.553Z,18.89
2022-08-24T05:07:44.967Z,18.95
2022-08-24T05:10:50.542Z,19.16
2022-08-24T05:13:55.636Z,19.32
2022-08-24T05:16:58.230Z,19.49
2022-08-24T05:20:00.921Z,19.71
2022-08-24T05:23:04.643Z,19.88
2022-08-24T05:26:10.223Z,20.03
2022-08-24T05:29:14.461Z,20.19
2022-08-24T05:32:19.129Z,20.27
2022-08-24T05:35:21.987Z,20.39
2022-08-24T05:38:24.475Z,20.38
2022-08-24T05:41:27.711Z,20.42
2022-08-24T05:44:31.897Z,20.48
2022-08-24T05:47:35.412Z,20.56
2022-08-24T05:50:38.072Z,20.66
2022-08-24T05:53:40.978Z,20.69
2022-08-24T05:56:44.718Z,20.77
2022-08-24T05:59:48.927Z,20.85
2022-08-24T06:02:52.902Z,20.90
2022-08-24T06:05:55.899Z,21.03
2022-08-24T06:09:01.550Z,21.17
2022-08-24T06:12:04.619Z,21.16
2022-08-24T06:15:09.666Z,21.20
2022-08-24T06:18:12.293Z,21.14
2022-08-24T06:21:17.676Z,21.26
2022-08-24T06:24:42.117Z,21.39
2022-08-24T06:27:45.205Z,21.44
2022-08-24T06:30:48.999Z,21.50
2022-08-24T06:33:52.814Z,21.53
2022-08-24T06:36:55.281Z,21.63
2022-08-24T06:39:59.841Z,21.68
2022-08-24T06:43:04.687Z,21.70
2022-08-24T06:46:08.702Z,21.66
2022-08-24T06:49:11.299Z,21.71
2022-08-24T06:52:13.999Z,21.65
2022-08-24T06:55:16.715Z,21.53
2022-08-24T06:58:20.140Z,21.54
2022-08-24T07:01:27.470Z,21.56
2022-08-24T07:04:30.210Z,21.54
2022-08-24T07:07:32.689Z,21.56
2022-08-24T07:10:35.674Z,21.54
2022-08-24T07:13:38.736Z,21.58
2022-08-24T07:16:42.842Z,21.68
2022-08-24T07:19:46.271Z,21.67
2022-08-24T07:22:48.848Z,21.67
2022-08-24T07:25:55.495Z,21.86
2022-08-24T07:29:05.128Z,21.95
2022-08-24T07:32:10.165Z,21.94
2022-08-24T07:35:12.737Z,21.93
2022-08-24T07:38:15.281Z,22.12
2022-08-24T07:41:40.459Z,22.34
2022-08-24T07:44:40.527Z,22.44
2022-08-24T07:47:54.587Z,22.62
2022-08-24T07:50:59.568Z,22.73
2022-08-24T07:54:03.590Z,22.83
2022-08-24T07:57:09.906Z,22.86
2022-08-24T08:00:15.810Z,22.89
2022-08-24T08:03:19.778Z,23.21
2022-08-24T08:06:22.254Z,23.36
2022-08-24T08:09:24.801Z,23.43
2022-08-24T08:12:27.454Z,23.61
2022-08-24T08:15:29.973Z,23.72
2022-08-24T08:18:34.838Z,23.63
2022-08-24T08:21:59.982Z,23.45
2022-08-24T08:25:02.487Z,23.27
2022-08-24T08:28:18.433Z,23.38
2022-08-24T08:31:28.137Z,23.67
2022-08-24T08:34:32.233Z,23.78
2022-08-24T08:40:56.374Z,24.04
2022-08-24T08:44:04.370Z,23.89
2022-08-24T08:47:18.116Z,24.04
2022-08-24T08:50:27.243Z,24.25
2022-08-24T08:54:02.857Z,24.20
2022-08-24T08:57:19.074Z,24.43
2022-08-24T09:00:24.558Z,24.81
2022-08-24T09:03:38.947Z,24.86
2022-08-24T09:06:52.014Z,24.60
2022-08-24T09:10:10.147Z,24.66
2022-08-24T09:13:26.905Z,24.83
2022-08-24T09:16:48.226Z,24.97
2022-08-24T09:20:08.850Z,25.27
2022-08-24T09:23:22.648Z,25.35
2022-08-24T09:26:29.173Z,25.04
2022-08-24T09:29:48.232Z,25.04
2022-08-24T09:33:06.243Z,25.13
2022-08-24T09:36:13.032Z,25.45
2022-08-24T09:39:37.091Z,25.67
2022-08-24T09:43:07.775Z,25.49
2022-08-24T09:46:50.743Z,26.09
2022-08-24T09:50:11.324Z,26.41
2022-08-24T09:53:38.145Z,26.33
2022-08-24T09:57:12.175Z,26.43
2022-08-24T10:00:22.567Z,26.78
2022-08-24T10:03:40.007Z,26.96
2022-08-24T10:06:55.531Z,26.45
2022-08-24T10:10:16.810Z,26.36
2022-08-24T10:13:26.151Z,26.60
2022-08-24T10:16:39.647Z,27.00
2022-08-24T10:19:57.891Z,27.47
2022-08-24T10:23:30.445Z,27.53
2022-08-24T10:26:42.038Z,28.05
2022-08-24T10:30:11.247Z,28.02
2022-08-24T10:33:21.225Z,27.11
2022-08-24T10:36:49.928Z,26.98
2022-08-24T10:40:14.311Z,26.79
2022-08-24T10:43:42.983Z,27.07
2022-08-24T10:46:56.613Z,27.21
2022-08-24T10:50:31.106Z,26.69
2022-08-24T10:53:34.685Z,26.90
2022-08-24T10:56:42.360Z,27.16
2022-08-24T10:59:53.674Z,26.94
2022-08-24T11:03:11.471Z,26.91
2022-08-24T11:06:16.554Z,26.99
2022-08-24T11:09:20.078Z,27.15
2022-08-24T11:12:26.386Z,27.44
2022-08-24T11:15:29.660Z,27.15
2022-08-24T11:18:49.781Z,27.14
2022-08-24T11:21:54.546Z,27.18
2022-08-24T11:25:00.491Z,27.62
2022-08-24T11:28:06.092Z,27.70
2022-08-24T11:31:12.480Z,27.69
2022-08-24T11:34:19.617Z,29.04
2022-08-24T11:37:27.105Z,29.36
2022-08-24T11:40:38.523Z,30.41
2022-08-24T11:43:58.857Z,30.70
2022-08-24T11:47:07.921Z,30.27
2022-08-24T11:50:23.470Z,29.40
2022-08-24T11:57:02.858Z,28.65
2022-08-24T12:00:10.399Z,27.80
2022-08-24T12:03:25.916Z,27.36
2022-08-24T12:06:41.898Z,27.31
2022-08-24T12:10:00.252Z,27.41
2022-08-24T12:13:10.999Z,27.71
2022-08-24T12:16:21.428Z,27.57
2022-08-24T12:19:29.742Z,27.82
2022-08-24T12:22:34.047Z,27.61
2022-08-24T12:25:55.277Z,27.66
2022-08-24T12:29:02.379Z,27.65
2022-08-24T12:32:10.315Z,27.54
2022-08-24T12:35:22.577Z,27.39
2022-08-24T12:38:32.696Z,27.39
2022-08-24T12:41:40.894Z,26.97
2022-08-24T12:44:50.130Z,27.64
2022-08-24T12:47:58.894Z,28.20
2022-08-24T12:51:14.565Z,27.62
2022-08-24T12:54:35.632Z,27.51
2022-08-24T12:57:54.579Z,27.62
2022-08-24T13:01:01.577Z,27.29
2022-08-24T13:04:11.770Z,27.15
2022-08-24T13:07:30.674Z,27.60
2022-08-24T13:10:42.279Z,27.74
2022-08-24T13:13:48.302Z,27.58
2022-08-24T13:17:09.542Z,27.46
2022-08-24T13:20:20.600Z,27.72
2022-08-24T13:23:25.222Z,27.52
2022-08-24T13:26:29.234Z,27.29
2022-08-24T13:29:35.477Z,27.05
2022-08-24T13:32:44.879Z,27.04
2022-08-24T13:36:03.891Z,27.29
2022-08-24T13:39:18.308Z,27.35
2022-08-24T13:42:46.338Z,26.95
2022-08-24T13:45:57.246Z,27.31
2022-08-24T13:49:03.864Z,27.51
2022-08-24T13:52:15.902Z,27.58
2022-08-24T13:55:36.781Z,27.35
2022-08-24T13:58:46.129Z,27.28
2022-08-24T14:02:08.368Z,27.43
2022-08-24T14:05:24.222Z,27.15
2022-08-24T14:08:42.875Z,27.15
2022-08-24T14:12:07.293Z,27.16
2022-08-24T14:15:27.016Z,28.04
2022-08-24T14:18:37.908Z,27.70
2022-08-24T14:21:46.544Z,28.35
2022-08-24T14:25:06.091Z,28.90
2022-08-24T14:28:37.161Z,28.66
2022-08-24T14:31:41.505Z,28.00
2022-08-24T14:34:53.160Z,28.45
2022-08-24T14:38:12.472Z,29.07
2022-08-24T14:41:20.612Z,29.09
2022-08-24T14:44:52.720Z,28.49
2022-08-24T14:48:05.484Z,27.31
2022-08-24T14:51:19.001Z,26.67
2022-08-24T14:54:32.458Z,26.22
2022-08-24T14:57:57.617Z,26.02
2022-08-24T15:01:13.095Z,26.20
2022-08-24T15:04:40.435Z,26.78
2022-08-24T15:07:53.793Z,26.89
2022-08-24T15:10:59.916Z,26.87
2022-08-24T15:14:05.808Z,26.81
2022-08-24T15:17:12.095Z,26.96
2022-08-24T15:20:21.058Z,26.98
2022-08-24T15:23:34.223Z,27.14
2022-08-24T15:26:51.039Z,26.91
2022-08-24T15:29:57.190Z,26.96
2022-08-24T15:33:06.360Z,26.91
2022-08-24T15:36:13.157Z,27.03
2022-08-24T15:39:27.093Z,26.75
2022-08-24T15:42:33.306Z,26.57
2022-08-24T15:45:48.355Z,26.59
2022-08-24T15:48:51.336Z,26.52
2022-08-24T15:51:58.447Z,26.49
2022-08-24T15:55:03.645Z,26.07
2022-08-24T15:58:25.615Z,25.93
2022-08-24T16:01:45.623Z,25.82
2022-08-24T16:04:50.169Z,25.22
2022-08-24T16:08:09.380Z,25.09
2022-08-24T16:11:27.439Z,25.11
2022-08-24T16:14:33.768Z,25.41
2022-08-24T16:17:41.359Z,25.53
2022-08-24T16:20:46.197Z,25.51
2022-08-24T16:24:01.312Z,25.63
2022-08-24T16:27:08.060Z,25.55
2022-08-24T16:30:24.559Z,25.58
2022-08-24T16:33:43.073Z,25.55
2022-08-24T16:36:48.699Z,25.43
2022-08-24T16:39:54.654Z,25.40
2022-08-24T16:42:57.586Z,25.27
2022-08-24T16:46:02.310Z,25.22
2022-08-24T16:49:04.874Z,25.19
2022-08-24T16:52:16.118Z,25.13
2022-08-24T16:55:19.957Z,25.07
2022-08-24T16:58:30.619Z,25.02
2022-08-24T17:01:33.182Z,24.86
2022-08-24T17:04:35.758Z,24.75
2022-08-24T17:07:38.352Z,24.61
2022-08-24T17:10:43.859Z,24.51
2022-08-24T17:13:50.228Z,24.49
2022-08-24T17:16:52.992Z,24.46
2022-08-24T17:19:56.555Z,24.42
2022-08-24T17:22:59.402Z,24.44
2022-08-24T17:26:09.530Z,24.52
2022-08-24T17:29:22.338Z,24.43
2022-08-24T17:32:25.613Z,24.33
2022-08-24T17:35:28.411Z,24.31
2022-08-24T17:38:31.486Z,24.20
2022-08-24T17:41:36.063Z,24.07
2022-08-24T17:44:39.221Z,23.97
2022-08-24T17:47:43.519Z,23.86
2022-08-24T17:50:46.102Z,23.73
2022-08-24T17:53:48.645Z,23.61
2022-08-24T17:56:52.899Z,23.39
2022-08-24T17:59:55.404Z,23.17
2022-08-24T18:02:57.940Z,22.93
2022-08-24T18:06:00.520Z,22.74
2022-08-24T18:09:06.774Z,22.56
2022-08-24T18:12:10.687Z,22.43
2022-08-24T18:15:13.330Z,22.29
2022-08-24T18:18:15.818Z,22.18
2022-08-24T18:21:20.029Z,22.05
2022-08-24T18:24:22.518Z,21.94
2022-08-24T18:27:29.322Z,21.91
2022-08-24T18:30:32.619Z,21.88
2022-08-24T18:33:35.492Z,21.78
2022-08-24T18:36:38.259Z,21.71
2022-08-24T18:39:40.734Z,21.58
2022-08-24T18:42:45.405Z,21.48
2022-08-24T18:45:47.964Z,21.36
2022-08-24T18:48:50.529Z,21.26
2022-08-24T18:51:53.284Z,21.18
2022-08-24T18:54:55.875Z,21.08
2022-08-24T18:58:00.204Z,20.95
2022-08-24T19:01:03.331Z,20.88
2022-08-24T19:04:11.996Z,20.85
2022-08-24T19:07:16.792Z,20.81
2022-08-24T19:10:21.855Z,20.79
2022-08-24T19:13:27.425Z,20.81
2022-08-24T19:16:30.384Z,20.80
2022-08-24T19:19:33.176Z,20.74
2022-08-24T19:22:36.368Z,20.76
2022-08-24T19:25:41.470Z,20.84
2022-08-24T19:28:45.287Z,20.90
2022-08-24T19:31:48.446Z,20.90
2022-08-24T19:34:51.399Z,20.77
2022-08-24T19:37:53.921Z,20.69
2022-08-24T19:40:58.046Z,20.71
2022-08-24T19:44:27.446Z,20.69
2022-08-24T19:47:30.455Z,20.66
2022-08-24T19:50:35.855Z,20.68
2022-08-24T19:53:38.872Z,20.58
2022-08-24T19:56:41.517Z,20.60
2022-08-24T19:59:45.718Z,20.67
2022-08-24T20:02:49.179Z,20.59
2022-08-24T20:05:51.911Z,20.55
2022-08-24T20:08:54.735Z,20.45
2022-08-24T20:11:57.231Z,20.35
2022-08-24T20:15:01.032Z,20.14
2022-08-24T20:18:03.720Z,19.92
2022-08-24T20:21:07.282Z,19.82
2022-08-24T20:24:11.211Z,19.64
2022-08-24T20:27:18.275Z,19.53
2022-08-24T20:30:22.637Z,19.43
2022-08-24T20:33:27.693Z,19.32
2022-08-24T20:36:36.255Z,19.21
2022-08-24T20:39:39.414Z,19.23
2022-08-24T20:42:42.639Z,19.26
2022-08-24T20:45:46.461Z,19.26
2022-08-24T20:48:55.579Z,19.10
2022-08-24T20:51:59.986Z,19.04
2022-08-24T20:55:04.859Z,18.99
2022-08-24T20:58:07.649Z,18.87
2022-08-24T21:01:11.864Z,18.73
2022-08-24T21:04:14.824Z,18.72
2022-08-24T21:07:17.350Z,18.82
2022-08-24T21:10:24.874Z,18.85
2022-08-24T21:13:29.358Z,18.80
2022-08-24T21:16:34.161Z,18.71
2022-08-24T21:19:36.671Z,18.72
2022-08-24T21:22:39.196Z,18.72
2022-08-24T21:25:41.783Z,18.68
2022-08-24T21:28:44.897Z,18.64
2022-08-24T21:32:02.699Z,18.66
2022-08-24T21:35:05.932Z,18.67
2022-08-24T21:38:08.482Z,18.61
2022-08-24T21:41:11.041Z,18.66
2022-08-24T21:44:13.560Z,18.70
2022-08-24T21:47:17.415Z,18.71
2022-08-24T21:50:20.026Z,18.66
2022-08-24T21:53:28.424Z,18.49
2022-08-24T21:56:33.329Z,18.38
2022-08-24T21:59:36.039Z,18.38
2022-08-24T22:02:39.930Z,18.42
2022-08-24T22:05:42.456Z,18.43
2022-08-24T22:08:45.235Z,18.40
2022-08-24T22:11:47.722Z,18.37
2022-08-24T22:14:50.317Z,18.20
2022-08-24T22:17:55.304Z,18.19
2022-08-24T22:20:57.791Z,18.16
2022-08-24T22:24:01.000Z,18.01
2022-08-24T22:27:03.634Z,17.90
2022-08-24T22:30:07.270Z,17.94
2022-08-24T22:33:11.127Z,17.87
2022-08-24T22:36:14.689Z,17.77
2022-08-24T22:39:17.629Z,17.75
2022-08-24T22:42:20.175Z,17.81
2022-08-24T22:45:22.687Z,17.83
2022-08-24T22:48:26.698Z,17.92
2022-08-24T22:51:29.477Z,17.99
2022-08-24T22:54:32.385Z,17.89
2022-08-24T22:57:35.039Z,17.86
2022-08-24T23:00:39.705Z,17.90
2022-08-24T23:03:43.605Z,17.89
2022-08-24T23:06:52.983Z,17.88
2022-08-24T23:09:55.473Z,17.88
2022-08-24T23:12:59.373Z,17.94
2022-08-24T23:16:01.951Z,17.94
2022-08-24T23:19:24.208Z,17.89
2022-08-24T23:22:28.289Z,17.78
2022-08-24T23:25:30.764Z,17.65
2022-08-24T23:28:34.068Z,17.65
2022-08-24T23:31:37.375Z,17.69
2022-08-24T23:34:41.505Z,17.79
2022-08-24T23:37:44.005Z,17.85
2022-08-24T23:40:46.526Z,17.90
2022-08-24T23:43:49.088Z,17.89
2022-08-24T23:46:51.604Z,17.72
2022-08-24T23:49:55.483Z,17.77
2022-08-24T23:52:58.055Z,17.75
2022-08-24T23:56:08.352Z,17.81
2022-08-24T23:59:13.917Z,17.84
